Time;durP1;ratioP1;P1;durP2;ratioP2;P2;SDS_P1;SDS_P2;PMS_P1;PMS_P2;Temp;Humidity;BMP_temperature;BMP_pressure;BME280_temperature;BME280_humidity;BME280_pressure;Samples;Min_cycle;Max_cycle;Signal;HPM_P1;HPM_P2
2023/02/18 00:02:04;;;;;;;;;;;;;;;;;;6159506;23;20384;-79
2023/02/18 00:04:30;;;;;;;;;;;;;;;;;;6183969;23;19915;-79
2023/02/18 00:06:55;;;;;;;;;;;;;;;;;;6159066;23;20338;-79
2023/02/18 00:09:21;;;;;;;;;;;;;;;;;;6184398;23;19909;-79
2023/02/18 00:11:46;;;;;;;;;;;;;;;;;;6185378;23;19908;-79
2023/02/18 00:14:11;;;;;;;;;;;;;;;;;;6185516;23;19959;-79
2023/02/18 00:16:37;;;;;;;;;;;;;;;;;;6184427;23;19920;-79
2023/02/18 00:19:02;;;;;;;;;;;;;;;;;;6185915;23;20246;-79
2023/02/18 00:21:27;;;;;;;;;;;;;;;;;;6184500;23;19935;-79
2023/02/18 00:23:53;;;;;;;;;;;;;;;;;;6186202;23;20327;-79
2023/02/18 00:26:18;;;;;;;;;;;;;;;;;;6185635;23;19932;-79
2023/02/18 00:28:43;;;;;;;;;;;;;;;;;;6184910;23;19983;-79
2023/02/18 00:31:09;;;;;;;;;;;;;;;;;;6184991;23;20357;-79
2023/02/18 00:33:34;;;;;;;;;;;;;;;;;;6184137;23;19909;-79
2023/02/18 00:36:00;;;;;;;;;;;;;;;;;;6183667;23;19939;-79
2023/02/18 00:38:25;;;;;;;;;;;;;;;;;;6184635;23;19909;-79
2023/02/18 00:40:50;;;;;;;;;;;;;;;;;;6184574;23;19908;-79
2023/02/18 00:43:16;;;;;;;;;;;;;;;;;;6184548;23;20390;-79
2023/02/18 00:45:41;;;;;;;;;;;;;;;;;;6186694;23;19909;-80
2023/02/18 00:48:06;;;;;;;;;;;;;;;;;;6187646;23;19932;-79
2023/02/18 00:50:32;;;;;;;;;;;;;;;;;;6185815;23;20322;-80
2023/02/18 00:52:57;;;;;;;;;;;;;;;;;;6187670;23;19959;-80
2023/02/18 00:55:23;;;;;;;;;;;;;;;;;;6188982;23;19983;-80
2023/02/18 00:57:48;;;;;;;;;;;;;;;;;;6160497;23;19912;-80
2023/02/18 01:00:13;;;;;;;;;;;;;;;;;;6188639;23;19915;-80
2023/02/18 01:02:39;;;;;;;;;;;;;;;;;;6163598;23;20291;-80
2023/02/18 01:05:04;;;;;;;;;;;;;;;;;;6192665;23;19915;-80
2023/02/18 01:07:29;;;;;;;;;;;;;;;;;;6189872;23;19987;-80
2023/02/18 01:09:55;;;;;;;;;;;;;;;;;;6190056;23;20526;-80
2023/02/18 01:12:20;;;;;;;;;;;;;;;;;;6186972;23;19908;-80
2023/02/18 01:14:46;;;;;;;;;;;;;;;;;;6190127;23;19908;-81
2023/02/18 01:17:11;;;;;;;;;;;;;;;;;;6191450;23;20357;-80
2023/02/18 01:19:38;;;;;;;;;;;;;;;;;;6188761;23;19932;-80
2023/02/18 01:22:05;;;;;;;;;;;;;;;;;;6191227;23;19916;-80
2023/02/18 01:24:31;;;;;;;;;;;;;;;;;;6196751;23;19932;-80
2023/02/18 01:26:56;;;;;;;;;;;;;;;;;;6197004;23;19908;-81
2023/02/18 01:29:21;;;;;;;;;;;;;;;;;;6194675;23;19908;-81
2023/02/18 01:31:47;;;;;;;;;;;;;;;;;;6195151;23;19908;-81
2023/02/18 01:34:14;;;;;;;;;;;;;;;;;;6196792;23;19954;-83
2023/02/18 01:36:39;;;;;;;;;;;;;;;;;;6176736;23;19916;-82
2023/02/18 01:39:04;;;;;;;;;;;;;;;;;;6202129;23;19913;-81
2023/02/18 01:41:30;;;;;;;;;;;;;;;;;;6195882;23;20348;-80
2023/02/18 01:43:55;;;;;;;;;;;;;;;;;;6171129;23;19908;-81
2023/02/18 01:46:21;;;;;;;;;;;;;;;;;;6194775;23;19908;-80
2023/02/18 01:48:46;;;;;;;;;;;;;;;;;;6196714;23;19908;-79
2023/02/18 01:51:11;;;;;;;;;;;;;;;;;;6169998;23;19935;-81
2023/02/18 01:53:37;;;;;;;;;;;;;;;;;;6197781;23;20348;-80
2023/02/18 01:56:04;;;;;;;;;;;;;;;;;;6194005;23;19908;-79
2023/02/18 01:58:29;;;;;;;;;;;;;;;;;;6176754;23;19989;-80
2023/02/18 02:00:55;;;;;;;;;;;;;;;;;;6162975;23;19960;-80
2023/02/18 02:03:20;;;;;;;;;;;;;;;;;;6163608;23;20254;-80
2023/02/18 02:05:45;;;;;;;;;;;;;;;;;;6164384;23;19908;-79
2023/02/18 02:08:14;;;;;;;;;;;;;;;;;;6164497;23;19912;-79
2023/02/18 02:10:40;;;;;;;;;;;;;;;;;;6164050;23;19964;-82
2023/02/18 02:13:05;;;;;;;;;;;;;;;;;;6161904;23;19908;-78
2023/02/18 02:15:31;;;;;;;;;;;;;;;;;;6156318;23;19909;-77
2023/02/18 02:17:57;;;;;;;;;;;;;;;;;;6131876;23;20286;-75
2023/02/18 02:20:22;;;;;;;;;;;;;;;;;;6157196;23;19909;-78
2023/02/18 02:22:47;;;;;;;;;;;;;;;;;;6158992;23;19932;-76
2023/02/18 02:25:13;;;;;;;;;;;;;;;;;;6157815;23;19919;-77
2023/02/18 02:27:39;;;;;;;;;;;;;;;;;;6158502;23;19919;-77
2023/02/18 02:30:06;;;;;;;;;;;;;;;;;;6132937;23;20283;-77
2023/02/18 02:32:32;;;;;;;;;;;;;;;;;;6158858;23;19909;-77
2023/02/18 02:34:57;;;;;;;;;;;;;;;;;;6159394;23;19947;-77
2023/02/18 02:37:26;;;;;;;;;;;;;;;;;;6161139;23;20089;-77
2023/02/18 02:39:51;;;;;;;;;;;;;;;;;;6159559;23;19924;-77
2023/02/18 02:42:16;;;;;;;;;;;;;;;;;;6158166;23;20338;-77
2023/02/18 02:44:42;;;;;;;;;;;;;;;;;;6134632;23;19940;-77
2023/02/18 02:47:07;;;;;;;;;;;;;;;;;;6160654;23;19908;-77
2023/02/18 02:49:33;;;;;;;;;;;;;;;;;;6161223;23;19909;-77
2023/02/18 02:51:58;;;;;;;;;;;;;;;;;;6159044;23;19913;-77
2023/02/18 02:54:23;;;;;;;;;;;;;;;;;;6158926;23;19948;-77
2023/02/18 02:56:53;;;;;;;;;;;;;;;;;;6156733;23;20339;-77
2023/02/18 02:59:20;;;;;;;;;;;;;;;;;;6156182;23;20096;-77
2023/02/18 03:01:46;;;;;;;;;;;;;;;;;;6132574;23;20300;-77
2023/02/18 03:04:11;;;;;;;;;;;;;;;;;;6158655;23;19975;-77
2023/02/18 03:06:38;;;;;;;;;;;;;;;;;;6132173;23;19904;-76
2023/02/18 03:09:03;;;;;;;;;;;;;;;;;;6157575;23;20397;-77
2023/02/18 03:11:29;;;;;;;;;;;;;;;;;;6132838;23;19928;-77
2023/02/18 03:13:54;;;;;;;;;;;;;;;;;;6157223;23;19909;-77
2023/02/18 03:16:23;;;;;;;;;;;;;;;;;;6157277;23;19920;-77
2023/02/18 03:18:48;;;;;;;;;;;;;;;;;;6156805;23;19909;-77
2023/02/18 03:21:14;;;;;;;;;;;;;;;;;;6156240;23;19912;-77
2023/02/18 03:23:39;;;;;;;;;;;;;;;;;;6158372;23;20248;-77
2023/02/18 03:26:04;;;;;;;;;;;;;;;;;;6131770;23;19964;-77
2023/02/18 03:28:31;;;;;;;;;;;;;;;;;;6156640;23;19904;-77
2023/02/18 03:30:56;;;;;;;;;;;;;;;;;;6158200;23;19995;-77
2023/02/18 03:33:22;;;;;;;;;;;;;;;;;;6156832;23;19916;-77
2023/02/18 03:35:47;;;;;;;;;;;;;;;;;;6156944;23;19909;-76
2023/02/18 03:38:13;;;;;;;;;;;;;;;;;;6132783;23;20286;-76
2023/02/18 03:40:39;;;;;;;;;;;;;;;;;;6158580;23;19928;-77
2023/02/18 03:43:05;;;;;;;;;;;;;;;;;;6158233;23;20326;-77
2023/02/18 03:45:30;;;;;;;;;;;;;;;;;;6158396;23;19913;-77
2023/02/18 03:47:56;;;;;;;;;;;;;;;;;;6159312;23;20035;-76
2023/02/18 03:50:22;;;;;;;;;;;;;;;;;;6157950;23;19915;-76
2023/02/18 03:52:48;;;;;;;;;;;;;;;;;;6159206;23;19972;-77
2023/02/18 03:55:13;;;;;;;;;;;;;;;;;;6157529;23;20286;-77
2023/02/18 03:57:38;;;;;;;;;;;;;;;;;;6159013;23;19920;-77
2023/02/18 04:00:05;;;;;;;;;;;;;;;;;;6157630;23;20364;-76
2023/02/18 04:02:38;;;;;;;;;;;;;;;;;;6159034;23;19909;-77
2023/02/18 04:05:03;;;;;;;;;;;;;;;;;;6157418;23;20320;-77
2023/02/18 04:07:29;;;;;;;;;;;;;;;;;;6159385;23;19971;-76
2023/02/18 04:09:54;;;;;;;;;;;;;;;;;;6159117;23;19908;-77
2023/02/18 04:12:19;;;;;;;;;;;;;;;;;;6158627;23;19908;-77
2023/02/18 04:14:45;;;;;;;;;;;;;;;;;;6158766;23;20498;-77
2023/02/18 04:17:10;;;;;;;;;;;;;;;;;;6159890;23;19995;-76
2023/02/18 04:19:36;;;;;;;;;;;;;;;;;;6159382;23;19987;-77
2023/02/18 04:22:01;;;;;;;;;;;;;;;;;;6159375;23;19908;-77
2023/02/18 04:24:26;;;;;;;;;;;;;;;;;;6133427;23;20000;-77
2023/02/18 04:26:52;;;;;;;;;;;;;;;;;;6132819;23;19932;-77
2023/02/18 04:29:17;;;;;;;;;;;;;;;;;;6159340;23;19988;-77
2023/02/18 04:31:42;;;;;;;;;;;;;;;;;;6131857;23;19916;-77
2023/02/18 04:34:08;;;;;;;;;;;;;;;;;;6158804;23;20270;-77
2023/02/18 04:36:33;;;;;;;;;;;;;;;;;;6157320;23;19948;-77
2023/02/18 04:38:59;;;;;;;;;;;;;;;;;;6157946;23;19931;-77
2023/02/18 04:41:24;;;;;;;;;;;;;;;;;;6132378;23;19909;-77
2023/02/18 04:43:49;;;;;;;;;;;;;;;;;;6158371;23;19908;-77
2023/02/18 04:46:15;;;;;;;;;;;;;;;;;;6131647;23;20334;-77
2023/02/18 04:48:40;;;;;;;;;;;;;;;;;;6131032;23;19908;-77
2023/02/18 04:51:06;;;;;;;;;;;;;;;;;;6157742;23;19912;-77
2023/02/18 04:53:33;;;;;;;;;;;;;;;;;;6156897;23;20557;-77
2023/02/18 04:55:59;;;;;;;;;;;;;;;;;;6156535;23;19912;-77
2023/02/18 04:58:24;;;;;;;;;;;;;;;;;;6156818;23;20331;-77
2023/02/18 05:00:49;;;;;;;;;;;;;;;;;;6157560;23;19945;-76
2023/02/18 05:03:15;;;;;;;;;;;;;;;;;;6157664;23;19908;-76
2023/02/18 05:05:44;;;;;;;;;;;;;;;;;;6157200;23;20005;-76
2023/02/18 05:08:10;;;;;;;;;;;;;;;;;;6132442;23;19909;-77
2023/02/18 05:10:35;;;;;;;;;;;;;;;;;;6159146;23;19951;-77
2023/02/18 05:13:00;;;;;;;;;;;;;;;;;;6158929;23;19972;-77
2023/02/18 05:15:26;;;;;;;;;;;;;;;;;;6157839;23;20250;-77
2023/02/18 05:17:51;;;;;;;;;;;;;;;;;;6161830;23;19919;-77
2023/02/18 05:20:16;;;;;;;;;;;;;;;;;;6160570;23;19956;-77
2023/02/18 05:22:42;;;;;;;;;;;;;;;;;;6158740;23;19918;-77
2023/02/18 05:25:07;;;;;;;;;;;;;;;;;;6158665;23;19959;-76
2023/02/18 05:27:32;;;;;;;;;;;;;;;;;;6157310;23;19904;-76
2023/02/18 05:29:58;;;;;;;;;;;;;;;;;;6160055;23;19915;-76
2023/02/18 05:32:23;;;;;;;;;;;;;;;;;;6161226;23;19924;-77
2023/02/18 05:34:49;;;;;;;;;;;;;;;;;;6183977;23;19996;-77
2023/02/18 05:37:14;;;;;;;;;;;;;;;;;;6160185;23;19912;-79
2023/02/18 05:39:39;;;;;;;;;;;;;;;;;;6187274;23;20354;-77
2023/02/18 05:42:05;;;;;;;;;;;;;;;;;;6183742;23;20240;-76
2023/02/18 05:44:30;;;;;;;;;;;;;;;;;;6183521;23;19984;-76
2023/02/18 05:46:55;;;;;;;;;;;;;;;;;;6184703;23;19908;-77
2023/02/18 05:49:21;;;;;;;;;;;;;;;;;;6159265;23;19934;-77
2023/02/18 05:51:46;;;;;;;;;;;;;;;;;;6183724;23;19931;-77
2023/02/18 05:54:12;;;;;;;;;;;;;;;;;;6184511;23;19908;-78
2023/02/18 05:56:37;;;;;;;;;;;;;;;;;;6183928;23;19915;-77
2023/02/18 05:59:02;;;;;;;;;;;;;;;;;;6183252;23;19912;-78
2023/02/18 06:01:28;;;;;;;;;;;;;;;;;;6158339;23;19959;-77
2023/02/18 06:03:53;;;;;;;;;;;;;;;;;;6186006;23;19915;-79
2023/02/18 06:06:18;;;;;;;;;;;;;;;;;;6187091;23;19956;-75
2023/02/18 06:08:44;;;;;;;;;;;;;;;;;;6186712;23;19908;-79
2023/02/18 06:11:09;;;;;;;;;;;;;;;;;;6186968;23;19908;-78
2023/02/18 06:13:34;;;;;;;;;;;;;;;;;;6185946;23;19915;-78
2023/02/18 06:16:00;;;;;;;;;;;;;;;;;;6134044;23;19909;-78
2023/02/18 06:18:25;;;;;;;;;;;;;;;;;;6183137;23;19912;-77
2023/02/18 06:20:51;;;;;;;;;;;;;;;;;;6184193;23;19991;-76
2023/02/18 06:23:16;;;;;;;;;;;;;;;;;;6157676;23;19915;-77
2023/02/18 06:25:41;;;;;;;;;;;;;;;;;;6184126;23;19996;-77
2023/02/18 06:28:07;;;;;;;;;;;;;;;;;;6185210;23;19919;-77
2023/02/18 06:30:32;;;;;;;;;;;;;;;;;;6184622;23;19916;-79
2023/02/18 06:32:57;;;;;;;;;;;;;;;;;;6158675;23;19959;-78
2023/02/18 06:35:23;;;;;;;;;;;;;;;;;;6186642;23;19912;-78
2023/02/18 06:37:48;;;;;;;;;;;;;;;;;;6186118;23;19912;-78
2023/02/18 06:40:14;;;;;;;;;;;;;;;;;;6184526;23;19909;-78
2023/02/18 06:42:39;;;;;;;;;;;;;;;;;;6160030;23;19912;-77
2023/02/18 06:45:05;;;;;;;;;;;;;;;;;;6185386;23;19991;-78
2023/02/18 06:47:30;;;;;;;;;;;;;;;;;;6187453;23;19909;-79
2023/02/18 06:49:56;;;;;;;;;;;;;;;;;;6189088;23;19908;-78
2023/02/18 06:52:21;;;;;;;;;;;;;;;;;;6184191;23;19963;-76
2023/02/18 06:54:47;;;;;;;;;;;;;;;;;;6183738;23;19915;-77
2023/02/18 06:57:12;;;;;;;;;;;;;;;;;;6186524;23;20331;-77
2023/02/18 06:59:37;;;;;;;;;;;;;;;;;;6184784;23;19931;-78
2023/02/18 07:02:03;;;;;;;;;;;;;;;;;;6184727;23;19912;-78
2023/02/18 07:04:28;;;;;;;;;;;;;;;;;;6186710;23;19918;-78
2023/02/18 07:06:53;;;;;;;;;;;;;;;;;;6159769;23;20031;-78
2023/02/18 07:09:19;;;;;;;;;;;;;;;;;;6186872;23;19908;-76
2023/02/18 07:11:44;;;;;;;;;;;;;;;;;;6184794;23;19908;-76
2023/02/18 07:14:09;;;;;;;;;;;;;;;;;;6184057;23;19908;-77
2023/02/18 07:16:35;;;;;;;;;;;;;;;;;;6184442;23;19912;-76
2023/02/18 07:19:00;;;;;;;;;;;;;;;;;;6187108;23;19908;-77
2023/02/18 07:21:25;;;;;;;;;;;;;;;;;;6185019;23;20315;-77
2023/02/18 07:23:51;;;;;;;;;;;;;;;;;;6186007;23;19912;-79
2023/02/18 07:26:16;;;;;;;;;;;;;;;;;;6184359;23;19908;-78
2023/02/18 07:28:41;;;;;;;;;;;;;;;;;;6187470;23;20227;-77
2023/02/18 07:31:07;;;;;;;;;;;;;;;;;;6188253;23;19954;-78
2023/02/18 07:33:32;;;;;;;;;;;;;;;;;;6186953;23;19917;-78
2023/02/18 07:35:57;;;;;;;;;;;;;;;;;;6184990;23;19915;-78
2023/02/18 07:38:23;;;;;;;;;;;;;;;;;;6186799;23;19916;-77
2023/02/18 07:40:48;;;;;;;;;;;;;;;;;;6187738;23;20245;-77
2023/02/18 07:43:14;;;;;;;;;;;;;;;;;;6184693;23;19904;-78
2023/02/18 07:45:39;;;;;;;;;;;;;;;;;;6184683;23;20258;-78
2023/02/18 07:48:04;;;;;;;;;;;;;;;;;;6187041;23;19908;-77
2023/02/18 07:50:33;;;;;;;;;;;;;;;;;;6186430;23;20332;-77
2023/02/18 07:52:59;;;;;;;;;;;;;;;;;;6185847;23;20330;-76
2023/02/18 07:55:47;;;;;;;;;;;;;;;;;;6185455;23;19988;-78
2023/02/18 07:58:10;;;;;;;;;;;;;;;;;;6158805;23;19958;-78
2023/02/18 08:00:35;;;;;;;;;;;;;;;;;;6185607;23;19987;-78
2023/02/18 08:03:00;;;;;;;;;;;;;;;;;;6185904;23;19952;-76
2023/02/18 08:05:26;;;;;;;;;;;;;;;;;;6186799;23;19939;-79
2023/02/18 08:07:51;;;;;;;;;;;;;;;;;;6191323;23;19908;-78
2023/02/18 08:10:16;;;;;;;;;;;;;;;;;;6168568;23;19908;-78
2023/02/18 08:12:42;;;;;;;;;;;;;;;;;;6195640;23;19908;-77
2023/02/18 08:15:07;;;;;;;;;;;;;;;;;;6200838;23;19916;-78
2023/02/18 08:17:33;;;;;;;;;;;;;;;;;;6204844;23;19920;-77
2023/02/18 08:19:58;;;;;;;;;;;;;;;;;;6206270;23;19909;-79
2023/02/18 08:22:23;;;;;;;;;;;;;;;;;;6199255;23;20011;-77
2023/02/18 08:24:49;;;;;;;;;;;;;;;;;;6191028;23;19908;-78
2023/02/18 08:27:14;;;;;;;;;;;;;;;;;;6192851;23;20333;-78
2023/02/18 08:29:39;;;;;;;;;;;;;;;;;;6188881;23;19919;-77
2023/02/18 08:32:05;;;;;;;;;;;;;;;;;;6189410;23;19908;-79
2023/02/18 08:34:30;;;;;;;;;;;;;;;;;;6186590;23;20389;-79
2023/02/18 08:36:55;;;;;;;;;;;;;;;;;;6186114;23;20011;-78
2023/02/18 08:39:21;;;;;;;;;;;;;;;;;;6185285;23;20356;-78
2023/02/18 08:41:46;;;;;;;;;;;;;;;;;;6185578;23;19983;-76
2023/02/18 08:44:12;;;;;;;;;;;;;;;;;;6185411;23;20385;-77
2023/02/18 08:46:37;;;;;;;;;;;;;;;;;;6185951;23;19904;-78
2023/02/18 08:49:03;;;;;;;;;;;;;;;;;;6184970;23;19912;-77
2023/02/18 08:51:28;;;;;;;;;;;;;;;;;;6185032;23;19934;-79
2023/02/18 08:53:54;;;;;;;;;;;;;;;;;;6185617;23;20294;-78
2023/02/18 08:56:19;;;;;;;;;;;;;;;;;;6186436;23;20211;-78
2023/02/18 08:58:45;;;;;;;;;;;;;;;;;;6186324;23;19915;-78
2023/02/18 09:01:10;;;;;;;;;;;;;;;;;;6186824;23;19908;-78
2023/02/18 09:03:35;;;;;;;;;;;;;;;;;;6187152;23;19908;-79
2023/02/18 09:06:01;;;;;;;;;;;;;;;;;;6187579;23;19908;-77
2023/02/18 09:08:26;;;;;;;;;;;;;;;;;;6187977;23;19908;-79
2023/02/18 09:10:52;;;;;;;;;;;;;;;;;;6162507;23;19916;-79
2023/02/18 09:13:17;;;;;;;;;;;;;;;;;;6161903;23;19958;-79
2023/02/18 09:15:42;;;;;;;;;;;;;;;;;;6188562;23;20003;-78
2023/02/18 09:18:08;;;;;;;;;;;;;;;;;;6188007;23;19912;-79
2023/02/18 09:20:33;;;;;;;;;;;;;;;;;;6189844;23;19919;-80
2023/02/18 09:23:00;;;;;;;;;;;;;;;;;;6193582;23;19930;-79
2023/02/18 09:25:25;;;;;;;;;;;;;;;;;;6188226;23;19987;-78
2023/02/18 09:27:51;;;;;;;;;;;;;;;;;;6187365;23;19915;-79
2023/02/18 09:30:16;;;;;;;;;;;;;;;;;;6186612;23;20392;-79
2023/02/18 09:32:41;;;;;;;;;;;;;;;;;;6187687;23;19908;-78
2023/02/18 09:35:07;;;;;;;;;;;;;;;;;;6187481;23;19991;-78
2023/02/18 09:37:32;;;;;;;;;;;;;;;;;;6188587;23;19970;-81
2023/02/18 09:39:58;;;;;;;;;;;;;;;;;;6190003;23;19915;-79
2023/02/18 09:42:24;;;;;;;;;;;;;;;;;;6191519;23;19912;-79
2023/02/18 09:44:49;;;;;;;;;;;;;;;;;;6198175;23;19914;-78
2023/02/18 09:47:14;;;;;;;;;;;;;;;;;;6197130;23;19951;-79
2023/02/18 09:49:40;;;;;;;;;;;;;;;;;;6192375;23;19908;-77
2023/02/18 09:52:05;;;;;;;;;;;;;;;;;;6195287;23;19908;-79
2023/02/18 09:54:30;;;;;;;;;;;;;;;;;;6170204;23;19916;-79
2023/02/18 09:56:56;;;;;;;;;;;;;;;;;;6191939;23;20294;-78
2023/02/18 09:59:22;;;;;;;;;;;;;;;;;;6194413;23;19908;-78
2023/02/18 10:01:47;;;;;;;;;;;;;;;;;;6138660;23;19932;-78
2023/02/18 10:04:13;;;;;;;;;;;;;;;;;;6191872;23;19912;-77
2023/02/18 10:06:38;;;;;;;;;;;;;;;;;;6183165;23;19904;-77
2023/02/18 10:09:03;;;;;;;;;;;;;;;;;;6185611;23;20282;-78
2023/02/18 10:11:29;;;;;;;;;;;;;;;;;;6186198;23;19908;-77
2023/02/18 10:13:54;;;;;;;;;;;;;;;;;;6187792;23;19952;-78
2023/02/18 10:16:20;;;;;;;;;;;;;;;;;;6185295;23;20147;-77
2023/02/18 10:18:48;;;;;;;;;;;;;;;;;;6187537;23;19987;-79
2023/02/18 10:21:13;;;;;;;;;;;;;;;;;;6187671;23;19912;-78
2023/02/18 10:23:38;;;;;;;;;;;;;;;;;;6188480;23;20361;-82
2023/02/18 10:26:04;;;;;;;;;;;;;;;;;;6157196;23;19908;-81
2023/02/18 10:28:30;;;;;;;;;;;;;;;;;;6210596;23;19935;-84
2023/02/18 10:30:56;;;;;;;;;;;;;;;;;;6190420;23;19908;-87
2023/02/18 10:33:21;;;;;;;;;;;;;;;;;;6188190;23;19913;-88
2023/02/18 10:35:46;;;;;;;;;;;;;;;;;;6186557;23;19904;-85
2023/02/18 10:38:12;;;;;;;;;;;;;;;;;;6205598;23;19931;-83
2023/02/18 10:40:38;;;;;;;;;;;;;;;;;;6193973;23;19913;-88
2023/02/18 10:43:03;;;;;;;;;;;;;;;;;;6193532;23;19956;-84
2023/02/18 10:45:29;;;;;;;;;;;;;;;;;;6185625;23;20372;-86
2023/02/18 10:47:54;;;;;;;;;;;;;;;;;;6185995;23;19915;-85
2023/02/18 10:50:20;;;;;;;;;;;;;;;;;;6187619;23;19908;-89
2023/02/18 10:52:45;;;;;;;;;;;;;;;;;;6135893;23;20214;-87
2023/02/18 10:55:10;;;;;;;;;;;;;;;;;;6187177;23;19917;-86
2023/02/18 10:57:36;;;;;;;;;;;;;;;;;;6186701;23;19936;-87
2023/02/18 11:00:09;;;;;;;;;;;;;;;;;;6163800;23;19936;-86
2023/02/18 11:02:34;;;;;;;;;;;;;;;;;;6185401;23;20361;-89
2023/02/18 11:05:00;;;;;;;;;;;;;;;;;;6184992;23;19912;-88
2023/02/18 11:07:26;;;;;;;;;;;;;;;;;;6184785;23;20291;-90
2023/02/18 11:09:51;;;;;;;;;;;;;;;;;;6187510;23;19924;-88
2023/02/18 11:12:17;;;;;;;;;;;;;;;;;;6184410;23;20286;-89
2023/02/18 11:14:42;;;;;;;;;;;;;;;;;;6185400;23;19909;-90
2023/02/18 11:17:07;;;;;;;;;;;;;;;;;;6186029;23;20345;-91
2023/02/18 11:19:33;;;;;;;;;;;;;;;;;;6136501;23;19964;-91
2023/02/18 11:21:58;;;;;;;;;;;;;;;;;;6134652;23;19979;-87
2023/02/18 11:24:24;;;;;;;;;;;;;;;;;;6186519;23;19939;-89
2023/02/18 11:26:49;;;;;;;;;;;;;;;;;;6160086;23;19916;-87
2023/02/18 11:29:14;;;;;;;;;;;;;;;;;;6139050;23;19938;-88
2023/02/18 11:31:40;;;;;;;;;;;;;;;;;;6161062;23;19979;-87
2023/02/18 11:42:13;;;;;;;;;;;;;;;;;;6151833;23;19932;-84
2023/02/18 11:44:40;;;;;;;;;;;;;;;;;;6146440;23;19912;-83
2023/02/18 11:47:23;;;;;;;;;;;;;;;;;;6166263;23;19921;-84
2023/02/18 11:49:59;;;;;;;;;;;;;;;;;;6179350;23;19908;-82
2023/02/18 11:52:36;;;;;;;;;;;;;;;;;;6156875;23;19897;-83
2023/02/18 11:55:03;;;;;;;;;;;;;;;;;;6127929;23;19916;-83
2023/02/18 11:57:30;;;;;;;;;;;;;;;;;;6126038;23;19929;-84
2023/02/18 12:00:02;;;;;;;;;;;;;;;;;;6127804;23;19916;-83
2023/02/18 12:02:34;;;;;;;;;;;;;;;;;;6149435;23;19909;-82
2023/02/18 12:05:00;;;;;;;;;;;;;;;;;;6126992;23;19917;-82
2023/02/18 12:07:31;;;;;;;;;;;;;;;;;;6151121;23;19933;-83
2023/02/18 12:09:57;;;;;;;;;;;;;;;;;;6123315;23;19913;-83
2023/02/18 12:12:26;;;;;;;;;;;;;;;;;;6102520;23;19919;-85
2023/02/18 12:14:55;;;;;;;;;;;;;;;;;;6126040;23;19917;-83
2023/02/18 12:17:25;;;;;;;;;;;;;;;;;;6127164;23;19920;-82
2023/02/18 12:19:51;;;;;;;;;;;;;;;;;;6128146;23;19953;-83
2023/02/18 12:22:16;;;;;;;;;;;;;;;;;;6173881;23;19905;-81
2023/02/18 12:24:42;;;;;;;;;;;;;;;;;;6152346;23;20398;-83
2023/02/18 12:27:10;;;;;;;;;;;;;;;;;;6101243;23;19975;-82
2023/02/18 12:29:42;;;;;;;;;;;;;;;;;;6126910;23;19936;-83
2023/02/18 12:32:08;;;;;;;;;;;;;;;;;;6152795;23;19977;-82
2023/02/18 12:34:34;;;;;;;;;;;;;;;;;;6152134;23;19964;-83
2023/02/18 12:37:07;;;;;;;;;;;;;;;;;;6174466;23;19917;-82
2023/02/18 12:39:37;;;;;;;;;;;;;;;;;;6124559;23;19915;-83
2023/02/18 12:42:03;;;;;;;;;;;;;;;;;;6103032;23;19940;-82
2023/02/18 12:44:33;;;;;;;;;;;;;;;;;;6125616;23;19909;-81
2023/02/18 12:47:14;;;;;;;;;;;;;;;;;;6149217;23;19913;-82
2023/02/18 12:49:43;;;;;;;;;;;;;;;;;;6124926;23;19948;-81
2023/02/18 12:52:12;;;;;;;;;;;;;;;;;;6150347;23;19904;-81
2023/02/18 12:54:37;;;;;;;;;;;;;;;;;;6122827;23;19935;-81
2023/02/18 12:57:06;;;;;;;;;;;;;;;;;;6126756;23;19916;-84
2023/02/18 12:59:35;;;;;;;;;;;;;;;;;;6125120;23;19909;-83
2023/02/18 13:02:01;;;;;;;;;;;;;;;;;;6126502;23;19973;-82
2023/02/18 13:04:29;;;;;;;;;;;;;;;;;;6099927;23;19935;-82
2023/02/18 13:06:55;;;;;;;;;;;;;;;;;;6148165;23;19909;-82
2023/02/18 13:09:21;;;;;;;;;;;;;;;;;;6100312;23;19920;-81
2023/02/18 13:11:49;;;;;;;;;;;;;;;;;;6097739;23;19909;-83
2023/02/18 13:14:17;;;;;;;;;;;;;;;;;;6169602;23;19909;-82
2023/02/18 13:16:43;;;;;;;;;;;;;;;;;;6097254;23;19909;-82
2023/02/18 13:19:14;;;;;;;;;;;;;;;;;;6141497;23;19956;-82
2023/02/18 13:21:41;;;;;;;;;;;;;;;;;;6141316;23;19920;-82
2023/02/18 13:24:07;;;;;;;;;;;;;;;;;;6147636;23;19912;-82
2023/02/18 13:29:25;;;;;;;;;;;;;;;;;;6124201;23;19937;-85
2023/02/18 13:31:59;;;;;;;;;;;;;;;;;;6074718;23;19913;-83
2023/02/18 13:34:25;;;;;;;;;;;;;;;;;;6089151;23;19909;-82
2023/02/18 13:36:50;;;;;;;;;;;;;;;;;;6145051;23;19916;-81
2023/02/18 13:39:22;;;;;;;;;;;;;;;;;;6144351;23;19908;-83
2023/02/18 13:41:48;;;;;;;;;;;;;;;;;;6170296;23;19970;-83
2023/02/18 13:44:14;;;;;;;;;;;;;;;;;;6143797;23;19909;-81
2023/02/18 13:46:40;;;;;;;;;;;;;;;;;;6165315;23;19909;-81
2023/02/18 13:49:06;;;;;;;;;;;;;;;;;;6143438;23;19928;-81
2023/02/18 13:51:32;;;;;;;;;;;;;;;;;;6143551;23;19936;-83
2023/02/18 13:54:01;;;;;;;;;;;;;;;;;;6147354;23;19912;-83
2023/02/18 13:56:30;;;;;;;;;;;;;;;;;;6121665;23;19909;-82
2023/02/18 13:59:01;;;;;;;;;;;;;;;;;;6158937;23;19971;-84
2023/02/18 14:01:27;;;;;;;;;;;;;;;;;;6201932;23;19913;-82
2023/02/18 14:04:11;;;;;;;;;;;;;;;;;;6195518;23;19933;-82
2023/02/18 14:06:37;;;;;;;;;;;;;;;;;;6152422;23;19913;-82
2023/02/18 14:09:06;;;;;;;;;;;;;;;;;;6150558;23;19920;-82
2023/02/18 14:11:31;;;;;;;;;;;;;;;;;;6177630;23;19984;-83
2023/02/18 14:13:58;;;;;;;;;;;;;;;;;;6152388;23;19920;-84
2023/02/18 14:16:26;;;;;;;;;;;;;;;;;;6149815;23;19928;-82
2023/02/18 14:18:55;;;;;;;;;;;;;;;;;;6180081;23;19916;-83
2023/02/18 14:21:21;;;;;;;;;;;;;;;;;;6154331;23;19932;-83
2023/02/18 14:23:50;;;;;;;;;;;;;;;;;;6178620;23;19909;-82
2023/02/18 14:26:18;;;;;;;;;;;;;;;;;;6155286;23;19909;-82
2023/02/18 14:28:43;;;;;;;;;;;;;;;;;;6180729;23;19952;-84
2023/02/18 14:31:18;;;;;;;;;;;;;;;;;;6157118;23;19908;-83
2023/02/18 14:33:45;;;;;;;;;;;;;;;;;;6180710;23;19908;-82
2023/02/18 14:36:10;;;;;;;;;;;;;;;;;;6180634;23;19909;-82
2023/02/18 14:38:36;;;;;;;;;;;;;;;;;;6153095;23;19955;-82
2023/02/18 14:41:02;;;;;;;;;;;;;;;;;;6142607;23;19940;-78
2023/02/18 14:43:27;;;;;;;;;;;;;;;;;;6142529;23;19924;-82
2023/02/18 14:45:54;;;;;;;;;;;;;;;;;;6130618;23;19900;-83
2023/02/18 14:48:26;;;;;;;;;;;;;;;;;;6131425;23;19939;-84
2023/02/18 14:50:55;;;;;;;;;;;;;;;;;;6128104;23;19948;-84
2023/02/18 14:53:29;;;;;;;;;;;;;;;;;;6131152;23;19913;-84
2023/02/18 14:55:57;;;;;;;;;;;;;;;;;;6180786;23;19897;-84
2023/02/18 14:58:24;;;;;;;;;;;;;;;;;;6155986;23;19913;-84
2023/02/18 15:00:49;;;;;;;;;;;;;;;;;;6178083;23;19957;-84
2023/02/18 15:03:19;;;;;;;;;;;;;;;;;;6181500;23;19907;-83
2023/02/18 15:05:45;;;;;;;;;;;;;;;;;;6132020;23;19893;-83
2023/02/18 15:08:12;;;;;;;;;;;;;;;;;;6179396;23;19920;-84
2023/02/18 15:10:38;;;;;;;;;;;;;;;;;;6178443;23;19892;-83
2023/02/18 15:13:04;;;;;;;;;;;;;;;;;;6154483;23;19909;-82
2023/02/18 15:15:30;;;;;;;;;;;;;;;;;;6153912;23;19909;-83
2023/02/18 15:17:59;;;;;;;;;;;;;;;;;;6153802;23;19904;-84
2023/02/18 15:20:25;;;;;;;;;;;;;;;;;;6127045;23;19948;-83
2023/02/18 15:22:57;;;;;;;;;;;;;;;;;;6152871;23;19909;-84
2023/02/18 15:25:24;;;;;;;;;;;;;;;;;;6133814;23;19920;-83
2023/02/18 15:27:53;;;;;;;;;;;;;;;;;;6156508;23;19913;-82
2023/02/18 15:30:19;;;;;;;;;;;;;;;;;;6181698;23;19908;-83
2023/02/18 15:32:45;;;;;;;;;;;;;;;;;;6181120;23;19919;-83
2023/02/18 15:35:12;;;;;;;;;;;;;;;;;;6127219;23;19908;-81
2023/02/18 15:37:37;;;;;;;;;;;;;;;;;;6180211;23;19896;-83
2023/02/18 15:40:15;;;;;;;;;;;;;;;;;;6182030;23;19912;-82
2023/02/18 15:42:40;;;;;;;;;;;;;;;;;;6153092;23;19909;-82
2023/02/18 15:45:06;;;;;;;;;;;;;;;;;;6130132;23;19896;-83
2023/02/18 15:47:33;;;;;;;;;;;;;;;;;;6180674;23;19904;-82
2023/02/18 15:49:59;;;;;;;;;;;;;;;;;;6153304;23;19916;-82
2023/02/18 15:52:30;;;;;;;;;;;;;;;;;;6153524;23;19893;-82
2023/02/18 15:54:56;;;;;;;;;;;;;;;;;;6151218;23;19955;-82
2023/02/18 15:57:21;;;;;;;;;;;;;;;;;;6175250;23;19908;-82
2023/02/18 15:59:47;;;;;;;;;;;;;;;;;;6154520;23;19968;-82
2023/02/18 16:02:13;;;;;;;;;;;;;;;;;;6130552;23;19908;-82
2023/02/18 16:04:39;;;;;;;;;;;;;;;;;;6176502;23;19917;-83
2023/02/18 16:07:05;;;;;;;;;;;;;;;;;;6149134;23;19924;-82
2023/02/18 16:09:31;;;;;;;;;;;;;;;;;;6128901;23;19920;-82
2023/02/18 16:12:03;;;;;;;;;;;;;;;;;;6150218;23;19931;-83
2023/02/18 16:14:48;;;;;;;;;;;;;;;;;;6155267;23;19916;-83
2023/02/18 16:17:18;;;;;;;;;;;;;;;;;;6178029;23;19928;-83
2023/02/18 16:19:43;;;;;;;;;;;;;;;;;;6122545;23;19916;-83
2023/02/18 16:22:16;;;;;;;;;;;;;;;;;;6123496;23;19960;-82
2023/02/18 16:24:42;;;;;;;;;;;;;;;;;;6175911;23;20069;-82
2023/02/18 16:27:11;;;;;;;;;;;;;;;;;;6132145;23;19908;-83
2023/02/18 16:29:57;;;;;;;;;;;;;;;;;;6178496;23;19948;-86
2023/02/18 16:40:40;;;;;;;;;;;;;;;;;;6192299;23;19946;-88
2023/02/18 16:43:20;;;;;;;;;;;;;;;;;;6120829;23;19924;-87
2023/02/18 16:49:03;;;;;;;;;;;;;;;;;;6132147;23;19943;-87
2023/02/18 16:54:49;;;;;;;;;;;;;;;;;;6195850;23;19904;-88
2023/02/18 16:57:22;;;;;;;;;;;;;;;;;;6155765;23;19927;-87
2023/02/18 16:59:52;;;;;;;;;;;;;;;;;;6163903;23;19916;-87
2023/02/18 17:05:15;;;;;;;;;;;;;;;;;;6183309;23;19904;-86
2023/02/18 17:10:51;;;;;;;;;;;;;;;;;;6165490;23;19907;-87
2023/02/18 17:13:20;;;;;;;;;;;;;;;;;;6123687;23;19947;-85